Time;durP1;ratioP1;P1;durP2;ratioP2;P2;SDS_P1;SDS_P2;PMS_P1;PMS_P2;Temp;Humidity;BMP_temperature;BMP_pressure;BME280_temperature;BME280_humidity;BME280_pressure;Samples;Min_cycle;Max_cycle;Signal;HPM_P1;HPM_P2
2021/12/20 00:01:11;;;;;;;21.90;16.90;;;4.80;99.90;;;;;;4982938;28;20563;-83
2021/12/20 00:03:39;;;;;;;19.83;15.80;;;4.80;99.90;;;;;;4989427;28;20718;-82
2021/12/20 00:06:06;;;;;;;20.50;16.10;;;4.90;99.90;;;;;;4992787;28;20219;-84
2021/12/20 00:08:33;;;;;;;22.30;17.77;;;4.90;99.90;;;;;;4992132;28;20233;-83
2021/12/20 00:10:59;;;;;;;23.77;17.58;;;4.90;99.90;;;;;;4993026;28;20210;-88
2021/12/20 00:13:27;;;;;;;25.38;18.08;;;4.90;99.90;;;;;;4992384;28;20203;-83
2021/12/20 00:15:55;;;;;;;23.67;17.95;;;4.90;99.90;;;;;;4988329;28;20318;-83
2021/12/20 00:18:22;;;;;;;24.50;18.08;;;4.90;99.90;;;;;;4993487;28;20279;-83
2021/12/20 00:20:50;;;;;;;21.85;17.77;;;4.80;99.90;;;;;;4993014;28;20556;-82
2021/12/20 00:23:17;;;;;;;22.05;17.25;;;4.70;99.90;;;;;;4993189;28;20230;-83
2021/12/20 00:25:48;;;;;;;21.58;17.08;;;4.60;99.90;;;;;;4989908;28;20298;-83
2021/12/20 00:28:16;;;;;;;22.35;17.45;;;4.60;99.90;;;;;;4992911;28;20199;-83
2021/12/20 00:30:43;;;;;;;22.60;17.40;;;4.70;99.90;;;;;;4992799;28;20705;-84
2021/12/20 00:33:10;;;;;;;24.25;19.27;;;4.70;99.90;;;;;;4992635;28;20570;-84
2021/12/20 00:35:37;;;;;;;23.85;18.73;;;4.80;99.90;;;;;;4992863;28;20215;-84
2021/12/20 00:40:50;;;;;;;22.52;18.38;;;4.90;99.90;;;;;;4992599;28;20725;-84
2021/12/20 00:43:17;;;;;;;25.25;18.98;;;4.90;99.90;;;;;;4992202;28;20982;-84
2021/12/20 00:45:44;;;;;;;23.00;18.27;;;5.00;99.90;;;;;;4987798;28;20208;-84
2021/12/20 00:48:11;;;;;;;22.73;17.40;;;5.00;99.90;;;;;;4992713;28;20552;-84
2021/12/20 00:50:40;;;;;;;21.60;17.42;;;5.10;99.90;;;;;;4993276;28;20286;-84
2021/12/20 00:53:09;;;;;;;25.30;19.90;;;5.10;99.90;;;;;;4992119;28;20203;-84
2021/12/20 00:55:36;;;;;;;20.55;17.00;;;5.10;99.90;;;;;;4990890;28;20552;-83
2021/12/20 00:58:04;;;;;;;20.30;17.20;;;5.10;99.90;;;;;;4990343;28;20199;-81
2021/12/20 01:00:35;;;;;;;22.40;17.55;;;5.10;99.90;;;;;;4989257;28;20594;-80
2021/12/20 01:03:03;;;;;;;22.77;17.80;;;5.10;99.90;;;;;;4993024;28;20288;-81
2021/12/20 01:05:31;;;;;;;23.42;18.73;;;5.00;99.90;;;;;;4984416;28;20280;-81
2021/12/20 01:08:01;;;;;;;23.55;18.67;;;4.90;99.90;;;;;;4991785;28;20195;-80
2021/12/20 01:10:30;;;;;;;24.50;19.13;;;4.90;99.90;;;;;;4990558;28;20199;-81
2021/12/20 01:12:59;;;;;;;23.95;19.23;;;4.90;99.90;;;;;;4991850;28;20298;-81
2021/12/20 01:15:31;;;;;;;22.30;18.60;;;4.80;99.90;;;;;;4986768;28;20722;-80
2021/12/20 01:17:58;;;;;;;25.13;20.05;;;4.80;99.90;;;;;;4991716;28;20278;-80
2021/12/20 01:20:25;;;;;;;28.65;21.08;;;4.80;99.90;;;;;;4991134;28;20199;-80
2021/12/20 01:22:53;;;;;;;25.55;19.73;;;4.70;99.90;;;;;;4991405;28;20219;-80
2021/12/20 01:25:22;;;;;;;25.85;19.67;;;4.60;99.90;;;;;;4991326;28;20756;-80
2021/12/20 01:27:50;;;;;;;25.85;19.67;;;4.60;99.90;;;;;;4992614;28;20194;-82
2021/12/20 01:30:20;;;;;;;28.48;20.23;;;4.60;99.90;;;;;;4992091;28;20302;-82
2021/12/20 01:32:47;;;;;;;28.20;20.63;;;4.50;99.90;;;;;;4990723;28;20294;-82
2021/12/20 01:35:15;;;;;;;27.33;20.75;;;4.40;99.90;;;;;;4992043;28;20215;-82
2021/12/20 01:37:42;;;;;;;28.60;20.85;;;4.40;99.90;;;;;;4989573;28;20554;-82
2021/12/20 01:40:13;;;;;;;30.48;20.92;;;4.40;99.90;;;;;;4991628;28;20278;-81
2021/12/20 01:42:40;;;;;;;28.17;21.85;;;4.50;99.90;;;;;;4991316;28;20195;-81
2021/12/20 01:45:14;;;;;;;28.40;20.60;;;4.40;99.90;;;;;;4989204;28;20211;-81
2021/12/20 01:48:04;;;;;;;29.90;21.17;;;4.40;99.90;;;;;;4986565;28;20198;-82
2021/12/20 01:51:14;;;;;;;30.08;22.60;;;4.40;99.90;;;;;;4992330;28;20183;-82
2021/12/20 01:53:58;;;;;;;31.83;21.77;;;4.40;99.90;;;;;;4986163;28;20194;-82
2021/12/20 01:56:44;;;;;;;29.55;20.55;;;4.40;99.90;;;;;;4992172;28;20218;-82
2021/12/20 01:59:31;;;;;;;28.00;20.80;;;4.40;99.90;;;;;;4990918;28;20205;-82
2021/12/20 02:02:18;;;;;;;32.63;22.05;;;4.40;99.90;;;;;;4990608;28;20205;-82
2021/12/20 02:05:15;;;;;;;32.63;22.98;;;4.30;99.90;;;;;;4984248;28;20595;-81
2021/12/20 02:08:03;;;;;;;30.55;22.08;;;4.20;99.90;;;;;;4987719;28;20199;-82
2021/12/20 02:10:50;;;;;;;32.85;23.75;;;4.20;99.90;;;;;;4985079;28;20210;-82
2021/12/20 02:13:37;;;;;;;28.52;21.13;;;4.10;99.90;;;;;;4990827;28;20206;-81
2021/12/20 02:16:22;;;;;;;28.85;21.30;;;4.10;99.90;;;;;;4991621;28;20206;-81
2021/12/20 02:19:11;;;;;;;28.13;21.08;;;4.20;99.90;;;;;;4985701;28;20215;-82
2021/12/20 02:21:58;;;;;;;27.88;20.70;;;4.20;99.90;;;;;;4984804;28;20218;-81
2021/12/20 02:24:43;;;;;;;26.83;20.88;;;4.30;99.90;;;;;;4990574;28;20350;-81
2021/12/20 02:27:29;;;;;;;27.90;20.58;;;4.50;99.90;;;;;;4984668;28;20203;-84
2021/12/20 02:30:37;;;;;;;26.42;20.48;;;4.60;99.90;;;;;;4987005;28;20332;-83
2021/12/20 02:39:11;;;;;;;26.15;19.63;;;4.90;99.90;;;;;;4985812;28;20206;-83
2021/12/20 02:41:57;;;;;;;26.05;20.90;;;4.90;99.90;;;;;;4984073;28;20742;-83
2021/12/20 02:44:50;;;;;;;24.42;20.30;;;5.00;99.90;;;;;;4990023;28;20290;-80
2021/12/20 02:47:38;;;;;;;24.50;18.67;;;5.00;99.90;;;;;;4983263;28;20370;-81
2021/12/20 02:50:23;;;;;;;25.73;20.42;;;5.00;99.90;;;;;;4989175;28;20296;-81
2021/12/20 02:53:09;;;;;;;26.45;20.08;;;5.10;99.90;;;;;;4991302;28;20296;-80
2021/12/20 02:55:56;;;;;;;24.42;18.70;;;5.10;99.90;;;;;;4989829;28;20298;-80
2021/12/20 02:58:23;;;;;;;26.58;20.33;;;5.10;99.90;;;;;;4991093;28;20210;-80
2021/12/20 03:00:50;;;;;;;24.20;18.92;;;5.10;99.90;;;;;;4983565;28;20732;-80
2021/12/20 03:03:16;;;;;;;27.27;20.48;;;5.10;99.90;;;;;;4986820;28;20206;-80
2021/12/20 03:05:44;;;;;;;26.80;21.48;;;5.10;99.90;;;;;;4990493;28;20219;-80
2021/12/20 03:08:11;;;;;;;25.50;19.75;;;5.10;99.90;;;;;;4986221;28;20198;-80
2021/12/20 03:10:41;;;;;;;26.27;19.80;;;5.20;99.90;;;;;;4981525;28;20559;-81
2021/12/20 03:13:10;;;;;;;24.50;18.63;;;5.30;99.90;;;;;;4991123;28;20282;-81
2021/12/20 03:15:37;;;;;;;22.95;18.85;;;5.30;99.90;;;;;;4989567;28;20556;-80
2021/12/20 03:18:04;;;;;;;24.45;18.20;;;5.30;99.90;;;;;;4988507;28;20274;-81
2021/12/20 03:20:32;;;;;;;25.17;18.98;;;5.40;99.90;;;;;;4991334;28;20660;-81
2021/12/20 03:22:59;;;;;;;24.58;19.35;;;5.40;99.90;;;;;;4984671;28;20203;-81
2021/12/20 03:25:25;;;;;;;24.00;18.90;;;5.30;99.90;;;;;;4990507;28;20227;-81
2021/12/20 03:27:53;;;;;;;26.85;19.83;;;5.30;99.90;;;;;;4990011;28;20218;-81
2021/12/20 03:30:22;;;;;;;25.00;18.80;;;5.30;99.90;;;;;;4989557;28;20206;-81
2021/12/20 03:32:49;;;;;;;26.75;19.00;;;5.30;99.90;;;;;;4990125;28;20606;-81
2021/12/20 03:35:16;;;;;;;26.88;19.75;;;5.30;99.90;;;;;;4990763;28;20630;-81
2021/12/20 03:37:44;;;;;;;26.70;19.73;;;5.20;99.90;;;;;;4990292;28;20199;-82
2021/12/20 03:40:11;;;;;;;25.30;18.40;;;5.20;99.90;;;;;;4989349;28;20203;-81
2021/12/20 03:42:42;;;;;;;25.00;19.45;;;5.20;99.90;;;;;;4983468;28;20204;-81
2021/12/20 03:45:10;;;;;;;27.90;20.77;;;5.20;99.90;;;;;;4992218;28;20303;-82
2021/12/20 03:47:38;;;;;;;27.75;20.55;;;5.10;99.90;;;;;;4988053;28;20210;-82
2021/12/20 03:50:06;;;;;;;23.58;18.90;;;5.10;99.90;;;;;;4989633;28;20201;-81
2021/12/20 03:52:33;;;;;;;25.33;19.10;;;5.00;99.90;;;;;;4989051;28;20196;-81
2021/12/20 03:55:00;;;;;;;28.95;20.15;;;5.00;99.90;;;;;;4992105;28;20211;-81
2021/12/20 03:57:27;;;;;;;26.33;20.38;;;5.10;99.90;;;;;;4993029;28;20241;-82
2021/12/20 03:59:54;;;;;;;27.58;19.63;;;5.10;99.90;;;;;;4993276;28;20207;-81
2021/12/20 04:02:22;;;;;;;28.27;21.30;;;5.10;99.90;;;;;;4993262;28;20729;-81
2021/12/20 04:04:50;;;;;;;27.80;20.30;;;5.10;99.90;;;;;;4992101;28;20227;-81
2021/12/20 04:07:18;;;;;;;27.60;19.98;;;5.00;99.90;;;;;;4993136;28;20278;-82
2021/12/20 04:09:45;;;;;;;28.90;21.00;;;5.00;99.90;;;;;;4992789;28;20261;-82
2021/12/20 04:12:12;;;;;;;25.38;19.25;;;4.90;99.90;;;;;;4987929;28;20599;-82
2021/12/20 04:14:39;;;;;;;28.52;21.63;;;4.90;99.90;;;;;;4983610;28;20291;-82
2021/12/20 04:17:06;;;;;;;28.83;21.50;;;4.80;99.90;;;;;;4991209;28;20203;-82
2021/12/20 04:19:33;;;;;;;30.17;21.95;;;4.70;99.90;;;;;;4993302;28;20286;-81
2021/12/20 04:22:01;;;;;;;32.05;22.48;;;4.60;99.90;;;;;;4992840;28;20198;-81
2021/12/20 04:24:28;;;;;;;31.10;21.45;;;4.60;99.90;;;;;;4993485;28;20661;-81
2021/12/20 04:26:55;;;;;;;30.83;21.50;;;4.60;99.90;;;;;;4992532;28;20294;-81
2021/12/20 04:29:22;;;;;;;30.15;21.60;;;4.60;99.90;;;;;;4993349;28;20191;-81
2021/12/20 04:31:49;;;;;;;28.35;21.23;;;4.60;99.90;;;;;;4988206;28;20195;-81
2021/12/20 04:34:16;;;;;;;27.27;20.95;;;4.70;99.90;;;;;;4992522;28;20621;-81
2021/12/20 04:36:43;;;;;;;35.10;22.77;;;4.80;99.90;;;;;;4991003;28;20214;-81
2021/12/20 04:39:15;;;;;;;30.38;22.00;;;4.80;99.90;;;;;;4991928;28;20195;-81
2021/12/20 04:41:42;;;;;;;30.52;21.58;;;4.80;99.90;;;;;;4986286;28;20631;-81
2021/12/20 04:44:09;;;;;;;26.40;19.80;;;4.70;99.90;;;;;;4991593;28;20227;-81
2021/12/20 04:46:36;;;;;;;30.20;21.52;;;4.60;99.90;;;;;;4991813;28;20196;-81
2021/12/20 04:49:04;;;;;;;29.08;20.63;;;4.60;99.90;;;;;;4992432;28;20503;-81
2021/12/20 04:51:31;;;;;;;30.20;21.75;;;4.70;99.90;;;;;;4992651;28;20195;-80
2021/12/20 04:53:58;;;;;;;29.90;19.67;;;4.60;99.90;;;;;;4993322;28;20199;-81
2021/12/20 04:56:26;;;;;;;26.17;20.50;;;4.60;99.90;;;;;;4985517;28;20203;-81
2021/12/20 04:58:53;;;;;;;28.42;20.70;;;4.60;99.90;;;;;;4991269;28;20204;-81
2021/12/20 05:01:20;;;;;;;30.63;22.50;;;4.60;99.90;;;;;;4992015;28;20206;-81
2021/12/20 05:03:47;;;;;;;30.75;22.00;;;4.60;99.90;;;;;;4990830;28;20203;-80
2021/12/20 05:06:15;;;;;;;31.48;22.40;;;4.60;99.90;;;;;;4986080;28;20195;-81
2021/12/20 05:08:48;;;;;;;29.25;22.15;;;4.70;99.90;;;;;;4986231;28;20205;-84
2021/12/20 05:11:15;;;;;;;28.60;21.17;;;4.70;99.90;;;;;;4991267;28;20680;-84
2021/12/20 05:13:44;;;;;;;28.67;21.10;;;4.70;99.90;;;;;;4988134;28;20203;-83
2021/12/20 05:16:11;;;;;;;30.35;20.52;;;4.70;99.90;;;;;;4987326;28;20198;-86
2021/12/20 05:18:38;;;;;;;23.25;18.38;;;4.80;99.90;;;;;;4990200;28;20199;-78
2021/12/20 05:21:04;;;;;;;30.35;20.15;;;4.80;99.90;;;;;;4992332;28;20196;-76
2021/12/20 05:23:32;;;;;;;23.92;18.60;;;5.00;99.90;;;;;;4990816;28;20199;-75
2021/12/20 05:25:59;;;;;;;26.20;19.48;;;5.10;99.90;;;;;;4990680;28;20302;-77
2021/12/20 05:28:26;;;;;;;20.58;17.23;;;5.30;99.90;;;;;;4991109;28;20201;-76
2021/12/20 05:30:54;;;;;;;24.60;18.88;;;5.50;99.90;;;;;;4991448;28;20227;-77
2021/12/20 05:33:22;;;;;;;23.52;18.50;;;5.60;99.90;;;;;;4987472;28;20211;-76
2021/12/20 05:35:50;;;;;;;22.67;17.20;;;5.90;99.90;;;;;;4984555;28;20317;-76
2021/12/20 05:38:17;;;;;;;22.45;18.52;;;5.80;99.90;;;;;;4971825;28;20689;-79
2021/12/20 05:40:44;;;;;;;26.10;19.85;;;5.70;99.90;;;;;;4982767;28;20501;-77
2021/12/20 05:43:11;;;;;;;24.15;19.05;;;5.70;99.90;;;;;;4983234;28;20207;-79
2021/12/20 05:45:38;;;;;;;26.50;20.20;;;5.70;99.90;;;;;;4979806;28;20257;-78
2021/12/20 05:48:07;;;;;;;25.45;19.13;;;5.70;99.90;;;;;;4981834;28;20195;-78
2021/12/20 05:50:34;;;;;;;24.15;19.00;;;5.70;99.90;;;;;;4981726;28;20264;-78
2021/12/20 05:53:01;;;;;;;22.63;19.00;;;5.70;99.90;;;;;;4984741;28;20223;-78
2021/12/20 05:55:28;;;;;;;23.33;19.17;;;5.60;99.90;;;;;;4989417;28;20309;-78
2021/12/20 05:57:55;;;;;;;26.55;18.75;;;5.60;99.90;;;;;;4981025;28;20344;-77
2021/12/20 06:00:23;;;;;;;26.35;19.73;;;5.50;99.90;;;;;;4981692;28;20592;-79
2021/12/20 06:02:52;;;;;;;24.70;18.92;;;5.50;99.90;;;;;;4984791;28;20215;-78
2021/12/20 06:05:22;;;;;;;24.73;18.88;;;5.40;99.90;;;;;;4984712;28;20239;-77
2021/12/20 06:07:49;;;;;;;28.40;20.85;;;5.40;99.90;;;;;;4986866;28;20206;-78
2021/12/20 06:10:18;;;;;;;27.83;20.45;;;5.40;99.90;;;;;;4984255;28;20212;-82
2021/12/20 06:12:46;;;;;;;32.53;21.88;;;5.30;99.90;;;;;;4979859;28;20207;-80
2021/12/20 06:15:14;;;;;;;26.73;19.95;;;5.20;99.90;;;;;;4980949;28;20222;-78
2021/12/20 06:17:41;;;;;;;26.55;20.25;;;5.10;99.90;;;;;;4986851;28;20200;-78
2021/12/20 06:20:11;;;;;;;25.98;19.52;;;5.10;99.90;;;;;;4984139;28;20290;-78
2021/12/20 06:22:39;;;;;;;28.98;21.95;;;5.10;99.90;;;;;;4984824;28;20192;-78
2021/12/20 06:25:07;;;;;;;30.67;21.10;;;5.10;99.90;;;;;;4982813;28;20690;-78
2021/12/20 06:27:35;;;;;;;26.30;20.60;;;5.00;99.90;;;;;;4987483;28;20198;-78
2021/12/20 06:30:02;;;;;;;29.15;20.33;;;5.00;99.90;;;;;;4986205;28;20195;-77
2021/12/20 06:32:29;;;;;;;28.65;20.40;;;5.00;99.90;;;;;;4986986;28;20199;-78
2021/12/20 06:34:56;;;;;;;27.70;19.90;;;4.90;99.90;;;;;;4986050;28;20476;-78
2021/12/20 06:37:23;;;;;;;26.45;19.73;;;4.90;99.90;;;;;;4982046;28;20203;-82
2021/12/20 06:39:52;;;;;;;28.23;20.58;;;4.80;99.90;;;;;;4982590;28;20195;-78
2021/12/20 06:42:19;;;;;;;26.98;20.48;;;4.80;99.90;;;;;;4978301;28;20196;-78
2021/12/20 06:44:46;;;;;;;28.50;19.60;;;4.80;99.90;;;;;;4984820;28;20257;-78
2021/12/20 06:47:13;;;;;;;31.77;21.80;;;4.80;99.90;;;;;;4984299;28;20296;-78
2021/12/20 06:49:40;;;;;;;27.45;20.90;;;4.80;99.90;;;;;;4984505;28;20195;-77
2021/12/20 06:52:07;;;;;;;29.45;20.55;;;4.80;99.90;;;;;;4981297;28;20627;-78
2021/12/20 06:54:34;;;;;;;27.48;19.67;;;4.80;99.90;;;;;;4984618;28;20223;-78
2021/12/20 06:57:03;;;;;;;27.10;20.13;;;4.80;99.90;;;;;;4987647;28;20203;-78
2021/12/20 06:59:30;;;;;;;28.13;20.55;;;4.80;99.90;;;;;;4987415;28;20210;-78
2021/12/20 07:01:57;;;;;;;27.63;20.10;;;4.80;99.90;;;;;;4983381;28;20191;-78
2021/12/20 07:04:24;;;;;;;25.92;19.05;;;4.80;99.90;;;;;;4984617;28;20250;-78
2021/12/20 07:06:52;;;;;;;25.77;18.55;;;4.80;99.90;;;;;;4984983;28;20658;-78
2021/12/20 07:09:19;;;;;;;26.98;18.85;;;4.80;99.90;;;;;;4986452;28;20196;-78
2021/12/20 07:11:46;;;;;;;22.02;16.80;;;4.80;99.90;;;;;;4987731;28;20207;-79
2021/12/20 07:14:14;;;;;;;28.50;18.30;;;4.80;99.90;;;;;;4986350;28;20305;-78
2021/12/20 07:16:42;;;;;;;23.90;17.25;;;4.90;99.90;;;;;;4983296;28;20227;-78
2021/12/20 07:19:09;;;;;;;23.63;17.27;;;4.80;99.90;;;;;;4986141;28;20747;-78
2021/12/20 07:21:36;;;;;;;22.33;16.05;;;4.90;99.90;;;;;;4991083;28;20206;-77
2021/12/20 07:24:04;;;;;;;24.52;17.63;;;4.90;99.90;;;;;;4988730;28;20585;-78
2021/12/20 07:26:31;;;;;;;22.70;16.45;;;4.90;99.90;;;;;;4990143;28;20222;-78
2021/12/20 07:28:58;;;;;;;21.83;17.23;;;4.80;99.90;;;;;;4985842;28;20203;-78
2021/12/20 07:31:27;;;;;;;23.63;16.52;;;4.80;99.90;;;;;;4986142;28;20199;-78
2021/12/20 07:33:53;;;;;;;21.35;16.10;;;4.80;99.90;;;;;;4978799;28;20757;-77
2021/12/20 07:36:22;;;;;;;28.00;19.02;;;4.80;99.90;;;;;;4982378;28;20274;-77
2021/12/20 07:38:50;;;;;;;21.77;16.60;;;4.90;99.90;;;;;;4985593;28;20306;-77
2021/12/20 07:41:19;;;;;;;22.50;16.13;;;4.90;99.90;;;;;;4988305;28;20227;-77
2021/12/20 07:43:46;;;;;;;23.42;17.23;;;4.90;99.90;;;;;;4985419;28;20390;-77
2021/12/20 07:46:33;;;;;;;23.10;15.80;;;4.90;99.90;;;;;;4981281;28;20520;-78
2021/12/20 07:49:19;;;;;;;23.40;16.40;;;4.90;99.90;;;;;;4986349;28;20206;-78
2021/12/20 07:52:05;;;;;;;22.27;15.10;;;5.00;99.90;;;;;;4978318;28;20226;-77
2021/12/20 07:54:51;;;;;;;21.83;16.95;;;5.00;99.90;;;;;;4985222;28;20716;-78
2021/12/20 07:57:37;;;;;;;21.58;16.38;;;5.00;99.90;;;;;;4985797;28;20206;-77
2021/12/20 08:00:23;;;;;;;22.10;16.40;;;4.90;99.90;;;;;;4985509;28;20289;-75
2021/12/20 08:03:10;;;;;;;23.08;17.30;;;4.90;99.90;;;;;;4980710;28;20230;-74
2021/12/20 08:05:55;;;;;;;25.50;17.20;;;4.90;99.90;;;;;;4985715;28;20227;-75
2021/12/20 08:08:41;;;;;;;23.02;17.42;;;4.90;99.90;;;;;;4984160;28;20233;-75
2021/12/20 08:11:26;;;;;;;20.15;15.80;;;4.90;99.90;;;;;;4977151;28;20667;-75
2021/12/20 08:14:12;;;;;;;20.60;16.17;;;4.90;99.90;;;;;;4990717;28;20206;-75
2021/12/20 08:16:57;;;;;;;22.75;16.55;;;5.00;99.90;;;;;;4986180;28;20256;-75
2021/12/20 08:19:44;;;;;;;22.92;16.60;;;5.00;99.90;;;;;;4986137;28;20574;-75
2021/12/20 08:22:30;;;;;;;21.83;16.85;;;5.10;99.90;;;;;;4983688;28;20237;-74
2021/12/20 08:25:18;;;;;;;23.23;16.45;;;5.10;99.90;;;;;;4987253;28;20377;-75
2021/12/20 08:28:04;;;;;;;23.58;17.55;;;5.10;99.90;;;;;;4991384;28;20210;-74
2021/12/20 08:30:49;;;;;;;23.67;17.33;;;5.20;99.90;;;;;;4984769;28;20209;-74
2021/12/20 08:33:35;;;;;;;22.10;16.80;;;5.20;99.90;;;;;;4984735;28;20214;-74
2021/12/20 08:36:22;;;;;;;21.35;16.95;;;5.20;99.90;;;;;;4988827;28;20823;-74
2021/12/20 08:39:08;;;;;;;25.63;17.98;;;5.00;99.90;;;;;;4990453;28;20677;-75
2021/12/20 08:41:53;;;;;;;24.30;17.77;;;5.30;99.90;;;;;;4984133;28;20860;-75
2021/12/20 08:44:39;;;;;;;25.02;17.92;;;5.40;99.90;;;;;;4987516;28;21367;-75
2021/12/20 08:47:25;;;;;;;24.15;17.05;;;5.30;99.90;;;;;;4984230;28;20778;-74
2021/12/20 08:50:13;;;;;;;23.42;16.88;;;5.30;99.90;;;;;;4977148;28;20231;-75
2021/12/20 08:53:00;;;;;;;21.48;16.00;;;5.40;99.90;;;;;;4980723;28;20203;-74
2021/12/20 08:55:46;;;;;;;26.00;17.75;;;5.30;99.90;;;;;;4984793;28;20323;-75
2021/12/20 08:58:31;;;;;;;26.73;18.33;;;5.30;99.90;;;;;;4990945;28;20274;-74
2021/12/20 09:01:17;;;;;;;21.77;18.00;;;5.30;99.90;;;;;;4991086;28;20230;-74
2021/12/20 09:04:04;;;;;;;23.50;17.42;;;5.20;99.90;;;;;;4987819;28;20294;-75
2021/12/20 09:06:50;;;;;;;23.60;17.90;;;5.30;99.90;;;;;;4991468;28;21298;-74
2021/12/20 09:09:39;;;;;;;23.85;18.30;;;5.30;99.90;;;;;;4982452;28;20650;-74
2021/12/20 09:12:24;;;;;;;21.52;17.10;;;5.30;99.90;;;;;;4989822;28;20286;-73
2021/12/20 09:15:15;;;;;;;27.30;18.15;;;5.40;99.90;;;;;;4990478;28;20795;-73
2021/12/20 09:18:01;;;;;;;23.88;19.05;;;5.40;99.90;;;;;;4980200;28;20222;-73
2021/12/20 09:20:46;;;;;;;23.00;17.40;;;5.60;99.90;;;;;;4988978;28;20358;-74
2021/12/20 09:23:32;;;;;;;22.15;16.50;;;5.60;99.90;;;;;;4991054;28;20257;-74
2021/12/20 09:26:20;;;;;;;22.98;17.45;;;5.70;99.90;;;;;;4985740;28;20241;-74
2021/12/20 09:29:05;;;;;;;22.25;17.52;;;5.80;99.90;;;;;;4991103;28;20230;-74
2021/12/20 09:31:51;;;;;;;27.30;20.20;;;5.80;99.90;;;;;;4982536;28;20210;-74
2021/12/20 09:34:37;;;;;;;25.13;18.92;;;5.80;99.90;;;;;;4983622;28;20564;-73
2021/12/20 09:37:23;;;;;;;22.30;17.45;;;5.80;99.90;;;;;;4980433;28;20342;-73
2021/12/20 09:40:12;;;;;;;26.58;19.48;;;5.80;99.90;;;;;;4982435;28;20301;-73
2021/12/20 09:43:01;;;;;;;23.85;18.73;;;5.90;99.90;;;;;;4982602;28;20738;-73
2021/12/20 09:45:47;;;;;;;24.77;19.45;;;5.90;99.90;;;;;;4986434;28;20229;-74
2021/12/20 09:48:35;;;;;;;23.98;19.13;;;6.00;99.90;;;;;;4989587;28;20583;-74
2021/12/20 09:51:20;;;;;;;28.98;19.33;;;6.10;99.90;;;;;;4990911;28;20345;-74
2021/12/20 09:54:06;;;;;;;22.15;17.05;;;6.10;99.90;;;;;;4986409;28;20563;-73
2021/12/20 09:56:53;;;;;;;23.42;18.42;;;6.20;99.90;;;;;;4989980;28;20285;-74
2021/12/20 09:59:41;;;;;;;26.38;20.05;;;6.30;99.90;;;;;;4985294;28;20285;-74
2021/12/20 10:02:26;;;;;;;25.90;17.75;;;6.40;99.90;;;;;;4986832;28;20375;-73
2021/12/20 10:05:12;;;;;;;22.25;16.60;;;6.50;99.90;;;;;;4982448;28;20230;-74
2021/12/20 10:07:58;;;;;;;22.98;17.73;;;6.70;99.90;;;;;;4986726;28;20624;-74
2021/12/20 10:10:46;;;;;;;22.23;17.45;;;6.90;99.90;;;;;;4981918;28;20202;-74
2021/12/20 10:13:33;;;;;;;23.10;18.13;;;7.10;99.90;;;;;;4985255;28;20274;-71
2021/12/20 10:16:22;;;;;;;22.63;16.98;;;7.30;99.90;;;;;;4983935;28;20289;-73
2021/12/20 10:19:26;;;;;;;23.85;17.08;;;7.40;99.90;;;;;;4986832;28;20206;-73
2021/12/20 10:22:23;;;;;;;24.35;18.70;;;7.30;99.90;;;;;;4990055;28;20197;-73
2021/12/20 10:25:22;;;;;;;22.08;17.90;;;7.20;99.90;;;;;;4990508;28;20282;-73
2021/12/20 10:28:11;;;;;;;24.00;18.30;;;7.20;99.90;;;;;;4987153;28;20198;-73
2021/12/20 10:31:00;;;;;;;22.48;17.52;;;6.90;99.90;;;;;;4975510;28;20215;-74
2021/12/20 10:33:54;;;;;;;24.83;19.25;;;6.80;99.90;;;;;;4990563;28;20334;-73
2021/12/20 10:36:50;;;;;;;20.80;17.02;;;6.70;99.90;;;;;;4990323;28;20311;-73
2021/12/20 10:39:41;;;;;;;22.00;15.68;;;6.70;99.90;;;;;;4990855;28;20285;-74
2021/12/20 10:42:29;;;;;;;17.92;14.90;;;6.80;99.90;;;;;;4990641;28;20222;-73
2021/12/20 10:45:16;;;;;;;18.25;12.40;;;7.10;99.90;;;;;;4986230;28;20198;-73
2021/12/20 10:48:10;;;;;;;16.42;12.90;;;7.30;99.90;;;;;;4983771;28;20206;-73
2021/12/20 10:50:57;;;;;;;12.50;10.45;;;7.50;99.90;;;;;;4982916;28;20387;-74
2021/12/20 10:53:47;;;;;;;13.00;9.73;;;7.70;99.90;;;;;;4984195;28;20210;-74
2021/12/20 10:56:35;;;;;;;13.30;10.20;;;8.00;99.90;;;;;;4994906;28;20761;-73
2021/12/20 10:59:23;;;;;;;9.85;7.78;;;8.40;99.90;;;;;;4992961;28;20679;-74
2021/12/20 11:05:21;;;;;;;9.80;8.02;;;8.40;99.90;;;;;;4974073;28;20230;-73
2021/12/20 11:11:10;;;;;;;12.45;9.63;;;8.40;99.90;;;;;;5087440;27;20551;-73
2021/12/20 11:13:58;;;;;;;12.10;9.80;;;8.20;99.90;;;;;;5079170;28;20578;-74
2021/12/20 11:16:46;;;;;;;11.93;9.77;;;8.50;99.90;;;;;;5081667;28;20215;-74
2021/12/20 11:19:33;;;;;;;10.82;9.10;;;9.50;99.90;;;;;;5061680;28;20262;-74
2021/12/20 11:22:21;;;;;;;12.15;9.43;;;10.40;99.90;;;;;;5066756;28;20216;-74
2021/12/20 11:25:08;;;;;;;9.63;8.27;;;11.40;99.90;;;;;;5076991;28;20214;-74
2021/12/20 11:27:56;;;;;;;9.50;7.97;;;11.60;99.90;;;;;;5061684;28;20816;-74
2021/12/20 11:30:41;;;;;;;8.40;7.35;;;12.00;99.90;;;;;;5057358;28;20224;-75
2021/12/20 11:33:27;;;;;;;10.05;8.45;;;12.50;99.90;;;;;;5059203;28;20678;-75
2021/12/20 11:36:13;;;;;;;10.93;8.70;;;12.90;99.90;;;;;;5052990;28;20235;-74
2021/12/20 11:38:59;;;;;;;8.73;7.70;;;12.80;99.90;;;;;;5058446;28;20200;-74
2021/12/20 11:41:45;;;;;;;11.63;9.10;;;12.10;99.90;;;;;;5046482;28;20224;-75
2021/12/20 11:44:32;;;;;;;11.63;9.85;;;11.60;99.90;;;;;;5054655;28;20282;-74
2021/12/20 11:47:27;;;;;;;12.00;9.35;;;10.40;99.90;;;;;;5054212;28;20585;-76
2021/12/20 11:50:14;;;;;;;13.13;9.90;;;9.50;99.90;;;;;;5047044;28;20782;-73
2021/12/20 11:53:05;;;;;;;12.73;9.38;;;9.20;99.90;;;;;;5064271;28;20350;-74
2021/12/20 11:55:54;;;;;;;10.38;8.43;;;9.10;99.90;;;;;;5048733;28;20223;-74
2021/12/20 11:58:46;;;;;;;10.75;8.93;;;9.00;99.90;;;;;;5052279;28;20775;-73
2021/12/20 12:01:33;;;;;;;11.25;9.20;;;8.90;99.90;;;;;;5049584;28;20201;-74
2021/12/20 12:04:18;;;;;;;15.90;11.20;;;8.80;99.90;;;;;;5046547;28;20581;-74
2021/12/20 12:07:22;;;;;;;14.07;11.25;;;8.80;99.90;;;;;;5047679;28;20204;-74
2021/12/20 12:10:09;;;;;;;13.15;10.20;;;8.80;99.90;;;;;;5052650;28;20235;-74
2021/12/20 12:13:00;;;;;;;11.23;10.02;;;8.80;99.90;;;;;;5046356;28;20327;-74
2021/12/20 12:15:39;;;;;;;14.10;10.15;;;8.70;99.90;;;;;;5057509;28;20525;-74
2021/12/20 12:18:10;;;;;;;11.02;8.57;;;8.60;99.90;;;;;;5053744;28;20190;-74
2021/12/20 12:20:47;;;;;;;13.75;10.10;;;8.40;99.90;;;;;;5043825;28;20190;-74
2021/12/20 12:23:44;;;;;;;12.45;9.82;;;8.40;99.90;;;;;;5032819;28;20753;-74
2021/12/20 12:26:29;;;;;;;11.50;8.95;;;8.30;99.90;;;;;;5035552;28;20362;-74
2021/12/20 12:28:57;;;;;;;11.35;8.80;;;8.10;99.90;;;;;;5038110;28;20197;-75
2021/12/20 12:31:25;;;;;;;11.98;9.10;;;8.10;99.90;;;;;;5032272;28;20672;-74
2021/12/20 12:34:06;;;;;;;10.65;8.23;;;8.00;99.90;;;;;;5040839;28;20320;-75
2021/12/20 12:36:39;;;;;;;12.93;8.85;;;7.90;99.90;;;;;;5034664;28;20651;-75
2021/12/20 12:39:10;;;;;;;10.50;8.30;;;7.90;99.90;;;;;;5041519;28;20194;-75
2021/12/20 12:41:44;;;;;;;11.50;8.02;;;7.80;99.90;;;;;;5033402;28;20201;-75
2021/12/20 12:44:24;;;;;;;12.25;8.52;;;7.70;99.90;;;;;;5042039;28;20656;-75
2021/12/20 12:46:56;;;;;;;10.05;7.97;;;7.70;99.90;;;;;;5034817;28;20280;-75
2021/12/20 12:49:51;;;;;;;11.57;8.32;;;7.50;99.90;;;;;;5032156;28;20245;-75
2021/12/20 12:52:37;;;;;;;11.75;8.30;;;7.40;99.90;;;;;;5043316;28;20236;-75
2021/12/20 12:55:25;;;;;;;11.20;8.10;;;7.30;99.90;;;;;;5039131;28;20218;-75
2021/12/20 12:57:53;;;;;;;14.73;8.77;;;7.20;99.90;;;;;;5025125;28;20206;-75
2021/12/20 13:00:33;;;;;;;10.25;7.95;;;7.10;99.90;;;;;;5040183;28;20216;-75
2021/12/20 13:03:14;;;;;;;12.68;8.10;;;7.10;99.90;;;;;;5032047;28;20206;-74
2021/12/20 13:05:43;;;;;;;10.15;8.35;;;7.10;99.90;;;;;;5039819;28;20193;-74
2021/12/20 13:08:10;;;;;;;11.48;8.73;;;7.10;99.90;;;;;;5031891;28;20623;-74
2021/12/20 13:10:40;;;;;;;9.77;7.15;;;7.40;99.90;;;;;;5031927;28;20257;-74
2021/12/20 13:13:12;;;;;;;12.40;7.93;;;7.90;99.90;;;;;;5036205;28;20212;-74
2021/12/20 13:15:43;;;;;;;9.98;7.00;;;8.80;99.90;;;;;;5051942;28;20335;-74
2021/12/20 13:18:14;;;;;;;8.85;6.65;;;9.80;99.90;;;;;;5048814;28;20289;-74
2021/12/20 13:20:50;;;;;;;7.95;6.65;;;10.70;99.90;;;;;;5040828;28;20568;-74
2021/12/20 13:23:18;;;;;;;7.70;6.50;;;11.60;99.90;;;;;;5051300;28;20223;-74
2021/12/20 13:25:49;;;;;;;7.80;6.78;;;12.20;99.90;;;;;;5045399;28;20212;-75
2021/12/20 13:28:23;;;;;;;8.00;6.43;;;12.80;99.90;;;;;;5041710;28;20285;-74
2021/12/20 13:30:53;;;;;;;6.50;5.78;;;12.90;99.90;;;;;;5043654;28;20221;-75
2021/12/20 13:33:22;;;;;;;7.57;6.78;;;12.90;99.90;;;;;;5039983;28;20205;-75
2021/12/20 13:35:52;;;;;;;7.32;6.13;;;13.20;99.80;;;;;;5033296;28;20202;-74
2021/12/20 13:38:23;;;;;;;7.97;6.75;;;13.40;99.90;;;;;;5035983;28;20232;-75